createdAt,value
2022-07-29T00:00:57.886Z,1.27
2022-07-29T00:03:24.702Z,1.40
2022-07-29T00:05:53.071Z,1.70
2022-07-29T00:08:20.418Z,1.30
2022-07-29T00:10:47.260Z,1.15
2022-07-29T00:13:14.257Z,1.65
2022-07-29T00:15:40.991Z,1.25
2022-07-29T00:18:07.639Z,1.30
2022-07-29T00:20:34.227Z,1.17
2022-07-29T00:23:00.847Z,1.50
2022-07-29T00:25:27.462Z,1.65
2022-07-29T00:27:54.037Z,1.33
2022-07-29T00:30:21.044Z,1.40
2022-07-29T00:32:47.550Z,1.50
2022-07-29T00:35:34.659Z,1.52
2022-07-29T00:38:11.316Z,1.38
2022-07-29T00:40:38.176Z,1.73
2022-07-29T00:43:10.133Z,1.45
2022-07-29T00:45:36.776Z,1.80
2022-07-29T00:48:04.377Z,1.40
2022-07-29T00:50:31.259Z,1.77
2022-07-29T00:52:57.902Z,1.45
2022-07-29T00:55:24.792Z,1.50
2022-07-29T00:57:51.518Z,1.98
2022-07-29T01:00:20.377Z,1.70
2022-07-29T01:02:50.816Z,1.63
2022-07-29T01:05:19.026Z,1.67
2022-07-29T01:07:46.802Z,1.95
2022-07-29T01:10:14.174Z,1.52
2022-07-29T01:12:41.234Z,1.73
2022-07-29T01:15:08.911Z,1.58
2022-07-29T01:17:52.797Z,1.67
2022-07-29T01:20:39.233Z,1.73
2022-07-29T01:23:14.868Z,1.83
2022-07-29T01:26:01.645Z,1.55
2022-07-29T01:28:50.433Z,2.13
2022-07-29T01:31:25.412Z,1.38
2022-07-29T01:33:58.581Z,1.63
2022-07-29T01:36:33.443Z,1.80
2022-07-29T01:39:05.816Z,1.65
2022-07-29T01:41:33.605Z,1.80
2022-07-29T01:44:03.667Z,1.50
2022-07-29T01:46:35.916Z,1.40
2022-07-29T01:49:14.579Z,1.52
2022-07-29T01:51:44.520Z,1.63
2022-07-29T01:54:17.844Z,1.60
2022-07-29T01:56:46.283Z,1.60
2022-07-29T01:59:12.858Z,2.03
2022-07-29T02:01:42.091Z,1.50
2022-07-29T02:04:13.433Z,1.30
2022-07-29T02:06:59.259Z,1.58
2022-07-29T02:09:26.236Z,1.65
2022-07-29T02:11:54.421Z,1.80
2022-07-29T02:14:22.306Z,1.45
2022-07-29T02:16:50.767Z,1.30
2022-07-29T02:19:19.368Z,1.40
2022-07-29T02:21:46.460Z,1.63
2022-07-29T02:24:14.191Z,1.55
2022-07-29T02:26:42.032Z,1.52
2022-07-29T02:29:09.688Z,1.38
2022-07-29T02:31:37.493Z,1.38
2022-07-29T02:34:08.323Z,1.27
2022-07-29T02:36:35.202Z,1.60
2022-07-29T02:39:03.003Z,1.20
2022-07-29T02:41:49.503Z,2.38
2022-07-29T02:44:17.643Z,1.30
2022-07-29T02:46:47.643Z,1.60
2022-07-29T02:49:17.816Z,1.50
2022-07-29T02:51:46.115Z,1.38
2022-07-29T02:54:18.391Z,1.55
2022-07-29T02:56:46.362Z,1.83
2022-07-29T02:59:14.824Z,1.50
2022-07-29T03:01:44.660Z,1.27
2022-07-29T03:04:12.864Z,1.40
2022-07-29T03:06:40.310Z,1.40
2022-07-29T03:09:13.595Z,1.20
2022-07-29T03:11:48.011Z,1.77
2022-07-29T03:14:18.301Z,1.50
2022-07-29T03:16:45.166Z,1.30
2022-07-29T03:19:12.002Z,1.45
2022-07-29T03:21:38.643Z,1.50
2022-07-29T03:24:10.110Z,1.20
2022-07-29T03:26:37.286Z,1.40
2022-07-29T03:29:03.834Z,1.10
2022-07-29T03:31:30.664Z,1.30
2022-07-29T03:33:58.612Z,1.33
2022-07-29T03:36:25.818Z,1.40
2022-07-29T03:38:53.168Z,1.38
2022-07-29T03:41:22.556Z,1.55
2022-07-29T03:43:50.771Z,1.50
2022-07-29T03:46:18.485Z,1.50
2022-07-29T03:48:51.693Z,1.20
2022-07-29T03:51:18.408Z,1.40
2022-07-29T03:54:00.507Z,1.35
2022-07-29T03:56:28.455Z,1.50
2022-07-29T03:58:55.782Z,1.42
2022-07-29T04:01:23.550Z,1.38
2022-07-29T04:03:50.661Z,1.20
2022-07-29T04:06:17.238Z,1.40
2022-07-29T04:08:43.958Z,1.25
2022-07-29T04:11:10.599Z,1.70
2022-07-29T04:13:37.330Z,1.63
2022-07-29T04:16:04.095Z,1.50
2022-07-29T04:18:30.949Z,1.38
2022-07-29T04:21:00.126Z,1.50
2022-07-29T04:23:27.349Z,1.38
2022-07-29T04:25:53.944Z,1.80
2022-07-29T04:28:20.577Z,1.45
2022-07-29T04:30:47.458Z,1.40
2022-07-29T04:33:14.073Z,1.45
2022-07-29T04:35:50.581Z,1.20
2022-07-29T04:38:21.702Z,1.92
2022-07-29T04:40:49.748Z,1.35
2022-07-29T04:43:16.691Z,1.80
2022-07-29T04:45:49.638Z,1.50
2022-07-29T04:48:16.177Z,1.00
2022-07-29T04:50:43.144Z,1.23
2022-07-29T04:53:09.817Z,1.50
2022-07-29T04:55:39.013Z,1.75
2022-07-29T04:58:05.961Z,1.60
2022-07-29T05:00:33.281Z,1.33
2022-07-29T05:03:00.594Z,1.52
2022-07-29T05:05:27.186Z,1.58
2022-07-29T05:07:53.919Z,1.50
2022-07-29T05:10:20.575Z,1.52
2022-07-29T05:12:47.863Z,1.40
2022-07-29T05:15:14.473Z,1.25
2022-07-29T05:17:41.569Z,1.73
2022-07-29T05:20:08.376Z,1.33
2022-07-29T05:22:35.042Z,1.55
2022-07-29T05:25:06.954Z,1.20
2022-07-29T05:27:36.128Z,1.75
2022-07-29T05:30:02.680Z,1.65
2022-07-29T05:32:29.292Z,1.58
2022-07-29T05:34:55.824Z,1.35
2022-07-29T05:37:22.431Z,2.05
2022-07-29T05:39:56.854Z,1.70
2022-07-29T05:42:24.492Z,1.70
2022-07-29T05:44:51.098Z,1.83
2022-07-29T05:47:17.822Z,1.73
2022-07-29T05:49:44.469Z,1.27
2022-07-29T05:52:11.179Z,2.20
2022-07-29T05:54:38.462Z,1.80
2022-07-29T05:57:06.319Z,1.40
2022-07-29T05:59:36.487Z,1.50
2022-07-29T06:02:03.163Z,1.52
2022-07-29T06:04:29.915Z,1.10
2022-07-29T06:06:56.553Z,1.60
2022-07-29T06:09:23.954Z,1.75
2022-07-29T06:11:50.778Z,1.60
2022-07-29T06:14:17.760Z,1.70
2022-07-29T06:16:44.575Z,1.70
2022-07-29T06:19:11.142Z,1.45
2022-07-29T06:21:38.660Z,1.38
2022-07-29T06:24:09.167Z,2.17
2022-07-29T06:26:39.584Z,1.27
2022-07-29T06:29:07.686Z,1.75
2022-07-29T06:31:37.314Z,1.45
2022-07-29T06:34:04.216Z,1.63
2022-07-29T06:36:31.614Z,1.67
2022-07-29T06:38:58.278Z,1.40
2022-07-29T06:41:24.944Z,1.35
2022-07-29T06:43:55.401Z,1.88
2022-07-29T06:46:23.822Z,1.45
2022-07-29T06:48:51.341Z,1.80
2022-07-29T06:51:22.692Z,1.67
2022-07-29T06:54:00.262Z,1.85
2022-07-29T06:56:29.509Z,1.60
2022-07-29T06:58:56.689Z,1.55
2022-07-29T07:01:23.358Z,1.35
2022-07-29T07:03:50.002Z,1.67
2022-07-29T07:06:17.055Z,1.50
2022-07-29T07:08:43.683Z,1.35
2022-07-29T07:11:10.244Z,1.42
2022-07-29T07:13:37.082Z,1.70
2022-07-29T07:16:04.183Z,2.20
2022-07-29T07:18:30.783Z,2.10
2022-07-29T07:20:57.818Z,2.17
2022-07-29T07:23:24.457Z,2.40
2022-07-29T07:25:53.232Z,2.40
2022-07-29T07:28:24.503Z,1.88
2022-07-29T07:30:52.034Z,1.60
2022-07-29T07:33:18.978Z,1.73
2022-07-29T07:35:45.615Z,2.25
2022-07-29T07:38:12.406Z,2.95
2022-07-29T07:40:39.010Z,2.30
2022-07-29T07:43:05.618Z,2.00
2022-07-29T07:45:33.966Z,1.88
2022-07-29T07:48:00.819Z,1.83
2022-07-29T07:50:27.585Z,2.90
2022-07-29T07:52:56.034Z,3.00
2022-07-29T07:55:22.603Z,2.60
2022-07-29T07:57:49.187Z,1.75
2022-07-29T08:00:16.515Z,2.50
2022-07-29T08:02:46.576Z,1.92
2022-07-29T08:05:17.608Z,2.60
2022-07-29T08:07:45.736Z,2.13
2022-07-29T08:10:12.470Z,2.78
2022-07-29T08:12:39.196Z,2.20
2022-07-29T08:15:08.340Z,2.72
2022-07-29T08:17:35.340Z,2.80
2022-07-29T08:20:02.138Z,3.30
2022-07-29T08:22:29.590Z,3.63
2022-07-29T08:24:57.146Z,3.53
2022-07-29T08:27:43.128Z,2.35
2022-07-29T08:30:11.324Z,2.47
2022-07-29T08:32:53.116Z,2.72
2022-07-29T08:35:22.167Z,2.85
2022-07-29T08:37:48.942Z,2.75
2022-07-29T08:40:15.660Z,4.82
2022-07-29T08:42:44.455Z,4.38
2022-07-29T08:45:11.281Z,4.53
2022-07-29T08:47:40.497Z,3.25
2022-07-29T08:50:08.384Z,3.90
2022-07-29T08:52:37.230Z,2.90
2022-07-29T08:55:05.002Z,2.78
2022-07-29T08:57:31.902Z,3.63
2022-07-29T09:00:06.241Z,3.40
2022-07-29T09:02:36.873Z,2.88
2022-07-29T09:05:03.853Z,2.97
2022-07-29T09:07:34.451Z,3.50
2022-07-29T09:10:02.006Z,3.92
2022-07-29T09:12:31.880Z,3.08
2022-07-29T09:15:00.466Z,2.88
2022-07-29T09:17:49.291Z,2.88
2022-07-29T09:20:25.112Z,2.53
2022-07-29T09:22:54.121Z,2.90
2022-07-29T09:25:36.811Z,2.63
2022-07-29T09:28:14.315Z,2.67
2022-07-29T09:30:54.905Z,2.40
2022-07-29T09:33:22.563Z,2.63
2022-07-29T09:36:08.559Z,2.80
2022-07-29T09:38:36.235Z,2.40
2022-07-29T09:41:05.711Z,2.28
2022-07-29T09:43:33.587Z,2.30
2022-07-29T09:46:16.307Z,2.30
2022-07-29T09:48:42.956Z,2.40
2022-07-29T09:51:23.067Z,2.15
2022-07-29T09:53:53.697Z,2.38
2022-07-29T09:56:20.280Z,2.10
2022-07-29T09:58:46.907Z,2.28
2022-07-29T10:01:13.639Z,2.30
2022-07-29T10:03:53.426Z,2.53
2022-07-29T10:06:19.959Z,2.35
2022-07-29T10:08:47.407Z,3.03
2022-07-29T10:11:17.914Z,2.85
2022-07-29T10:13:45.242Z,2.70
2022-07-29T10:16:13.943Z,3.17
2022-07-29T10:18:41.663Z,2.65
2022-07-29T10:21:08.892Z,2.80
2022-07-29T10:23:46.978Z,2.95
2022-07-29T10:26:14.207Z,2.92
2022-07-29T10:28:40.773Z,3.08
2022-07-29T10:31:09.424Z,2.63
2022-07-29T10:33:37.807Z,2.97
2022-07-29T10:36:07.569Z,3.00
2022-07-29T10:38:35.887Z,2.78
2022-07-29T10:41:32.287Z,2.67
2022-07-29T10:44:17.167Z,2.55
2022-07-29T10:46:46.214Z,2.67
2022-07-29T10:49:15.391Z,2.10
2022-07-29T10:51:51.836Z,2.90
2022-07-29T10:54:19.146Z,2.42
2022-07-29T10:56:47.729Z,2.38
2022-07-29T10:59:21.463Z,2.15
2022-07-29T11:01:53.434Z,2.50
2022-07-29T11:04:39.201Z,2.50
2022-07-29T11:07:05.813Z,2.05
2022-07-29T11:09:37.778Z,1.90
2022-07-29T11:12:25.128Z,2.70
2022-07-29T11:14:55.765Z,2.20
2022-07-29T11:17:23.476Z,2.53
2022-07-29T11:19:52.181Z,2.22
2022-07-29T11:22:34.997Z,2.25
2022-07-29T11:25:16.926Z,2.25
2022-07-29T11:27:43.922Z,2.10
2022-07-29T11:30:13.172Z,1.98
2022-07-29T11:32:42.190Z,2.00
2022-07-29T11:35:17.732Z,2.35
2022-07-29T11:37:52.658Z,2.47
2022-07-29T11:40:23.017Z,1.90
2022-07-29T11:42:50.238Z,2.22
2022-07-29T11:45:42.917Z,1.95
2022-07-29T11:51:10.403Z,2.15
2022-07-29T11:53:37.069Z,2.20
2022-07-29T11:56:05.293Z,1.80
2022-07-29T11:58:32.541Z,1.73
2022-07-29T12:01:04.607Z,1.95
2022-07-29T12:03:35.929Z,1.80
2022-07-29T12:06:17.983Z,2.60
2022-07-29T12:07:02.107Z,2.08
2022-07-29T12:08:45.132Z,1.60
2022-07-29T12:11:20.589Z,2.25
2022-07-29T12:13:49.356Z,1.92
2022-07-29T12:16:16.628Z,2.25
2022-07-29T12:19:02.886Z,2.25
2022-07-29T12:21:30.448Z,1.75
2022-07-29T12:24:04.821Z,2.28
2022-07-29T12:26:35.884Z,1.70
2022-07-29T12:29:03.185Z,2.70
2022-07-29T12:31:43.166Z,1.73
2022-07-29T12:34:12.945Z,1.65
2022-07-29T12:36:39.546Z,2.17
2022-07-29T12:39:06.207Z,1.92
2022-07-29T12:41:33.257Z,1.60
2022-07-29T12:43:59.921Z,2.35
2022-07-29T12:46:27.104Z,1.83
2022-07-29T12:48:57.643Z,2.13
2022-07-29T12:51:34.528Z,2.17
2022-07-29T12:54:04.056Z,1.95
2022-07-29T12:56:42.770Z,1.90
2022-07-29T12:59:13.449Z,2.08
2022-07-29T13:01:40.255Z,1.80
2022-07-29T13:04:06.794Z,1.90
2022-07-29T13:06:45.728Z,1.88
2022-07-29T13:09:14.603Z,1.80
2022-07-29T13:11:48.664Z,1.98
2022-07-29T13:14:30.609Z,2.08
2022-07-29T13:17:06.336Z,1.75
2022-07-29T13:19:39.661Z,1.60
2022-07-29T13:22:06.287Z,2.75
2022-07-29T13:24:32.995Z,2.22
2022-07-29T13:26:59.654Z,3.10
2022-07-29T13:29:31.343Z,2.58
2022-07-29T13:31:58.592Z,2.65
2022-07-29T13:34:25.676Z,2.58
2022-07-29T13:36:52.223Z,2.70
2022-07-29T13:39:19.017Z,1.95
2022-07-29T13:41:45.616Z,2.35
2022-07-29T13:44:14.316Z,2.35
2022-07-29T13:46:40.881Z,3.58
2022-07-29T13:49:07.663Z,2.30
2022-07-29T13:51:34.452Z,2.75
2022-07-29T13:54:01.033Z,2.03
2022-07-29T13:56:27.892Z,2.30
2022-07-29T13:58:54.404Z,1.85
2022-07-29T14:01:21.109Z,2.50
2022-07-29T14:03:47.968Z,1.95
2022-07-29T14:06:14.633Z,2.10
2022-07-29T14:08:41.786Z,2.60
2022-07-29T14:11:08.503Z,2.08
2022-07-29T14:13:35.148Z,2.42
2022-07-29T14:16:01.765Z,2.28
2022-07-29T14:18:28.438Z,1.83
2022-07-29T14:20:55.241Z,1.98
2022-07-29T14:23:22.149Z,2.50
2022-07-29T14:25:49.373Z,2.13
2022-07-29T14:28:16.495Z,2.20
2022-07-29T14:30:43.361Z,1.83
2022-07-29T14:33:11.054Z,2.15
2022-07-29T14:35:37.601Z,1.90
2022-07-29T14:38:04.593Z,1.90
2022-07-29T14:40:31.183Z,2.20
2022-07-29T14:42:57.822Z,1.88
2022-07-29T14:45:24.772Z,1.73
2022-07-29T14:47:51.771Z,1.63
2022-07-29T14:50:27.584Z,2.10
2022-07-29T14:52:58.285Z,1.65
2022-07-29T14:55:24.835Z,1.95
2022-07-29T14:57:51.530Z,1.80
2022-07-29T15:00:18.463Z,1.48
2022-07-29T15:03:01.452Z,1.83
2022-07-29T15:05:29.358Z,1.58
2022-07-29T15:07:56.210Z,1.95
2022-07-29T15:10:24.687Z,1.50
2022-07-29T15:12:54.185Z,1.80
2022-07-29T15:15:20.953Z,1.33
2022-07-29T15:17:47.816Z,2.50
2022-07-29T15:20:14.686Z,1.90
2022-07-29T15:22:43.200Z,1.55
2022-07-29T15:25:10.663Z,1.70
2022-07-29T15:27:37.303Z,1.95
2022-07-29T15:30:04.121Z,1.70
2022-07-29T15:32:30.866Z,2.00
2022-07-29T15:34:57.412Z,1.98
2022-07-29T15:37:24.032Z,2.13
2022-07-29T15:39:50.729Z,1.83
2022-07-29T15:42:17.902Z,2.15
2022-07-29T15:44:44.553Z,1.88
2022-07-29T15:47:11.099Z,1.70
2022-07-29T15:49:47.666Z,1.90
2022-07-29T15:52:25.896Z,2.28
2022-07-29T15:54:54.104Z,1.92
2022-07-29T15:57:20.667Z,1.98
2022-07-29T15:59:47.502Z,1.95
2022-07-29T16:02:14.109Z,1.70
2022-07-29T16:04:40.671Z,2.08
2022-07-29T16:07:07.687Z,1.90
2022-07-29T16:09:34.517Z,2.00
2022-07-29T16:12:01.160Z,1.80
2022-07-29T16:14:28.354Z,2.00
2022-07-29T16:16:56.036Z,1.80
2022-07-29T16:19:23.113Z,1.85
2022-07-29T16:21:49.651Z,2.08
2022-07-29T16:24:16.336Z,1.85
2022-07-29T16:26:43.351Z,1.90
2022-07-29T16:29:09.984Z,1.95
2022-07-29T16:31:36.589Z,1.80
2022-07-29T16:34:03.358Z,1.77
2022-07-29T16:36:30.002Z,1.90
2022-07-29T16:38:56.562Z,1.80
2022-07-29T16:41:23.358Z,1.92
2022-07-29T16:43:49.991Z,1.80
2022-07-29T16:46:18.979Z,1.80
2022-07-29T16:48:46.017Z,1.60
2022-07-29T16:51:14.497Z,2.38
2022-07-29T16:53:41.433Z,2.20
2022-07-29T16:56:08.501Z,1.95
2022-07-29T16:58:43.189Z,1.98
2022-07-29T17:01:10.697Z,1.73
2022-07-29T17:04:00.234Z,1.77
2022-07-29T17:06:27.676Z,2.42
2022-07-29T17:08:54.327Z,1.88
2022-07-29T17:11:20.855Z,2.58
2022-07-29T17:13:47.490Z,1.70
2022-07-29T17:16:14.214Z,2.00
2022-07-29T17:18:40.794Z,2.10
2022-07-29T17:21:07.353Z,1.80
2022-07-29T17:23:34.080Z,1.90
2022-07-29T17:26:00.587Z,1.67
2022-07-29T17:28:27.156Z,2.15
2022-07-29T17:30:53.675Z,2.13
2022-07-29T17:33:20.330Z,2.03
2022-07-29T17:36:05.474Z,1.70
2022-07-29T17:38:32.058Z,1.67
2022-07-29T17:40:58.668Z,1.80
2022-07-29T17:43:25.260Z,2.30
2022-07-29T17:45:51.787Z,1.95
2022-07-29T17:48:18.851Z,2.28
2022-07-29T17:50:46.062Z,1.45
2022-07-29T17:53:16.129Z,1.80
2022-07-29T17:55:45.418Z,1.83
2022-07-29T17:58:12.464Z,1.77
2022-07-29T18:00:39.516Z,1.70
2022-07-29T18:03:07.475Z,1.75
2022-07-29T18:05:35.051Z,1.90
2022-07-29T18:08:01.840Z,1.83
2022-07-29T18:10:30.314Z,1.90
2022-07-29T18:13:00.674Z,1.85
2022-07-29T18:15:28.158Z,1.70
2022-07-29T18:17:57.835Z,1.90
2022-07-29T18:20:26.677Z,1.90
2022-07-29T18:22:53.486Z,1.70
2022-07-29T18:25:20.983Z,1.60
2022-07-29T18:27:48.501Z,2.15
2022-07-29T18:30:15.323Z,2.13
2022-07-29T18:32:54.280Z,1.88
2022-07-29T18:35:29.222Z,1.65
2022-07-29T18:38:02.169Z,1.40
2022-07-29T18:40:30.141Z,2.17
2022-07-29T18:42:58.248Z,1.65
2022-07-29T18:45:29.009Z,1.60
2022-07-29T18:47:56.948Z,1.65
2022-07-29T18:50:29.583Z,1.60
2022-07-29T18:52:58.677Z,1.88
2022-07-29T18:55:26.013Z,2.08
2022-07-29T18:57:57.219Z,1.75
2022-07-29T19:00:25.297Z,1.80
2022-07-29T19:02:52.815Z,1.80
2022-07-29T19:05:23.082Z,1.73
2022-07-29T19:07:50.123Z,1.63
2022-07-29T19:10:16.828Z,1.58
2022-07-29T19:12:43.453Z,1.92
2022-07-29T19:15:10.680Z,1.85
2022-07-29T19:17:37.975Z,2.03
2022-07-29T19:20:05.113Z,1.50
2022-07-29T19:22:33.870Z,1.80
2022-07-29T19:25:00.529Z,1.60
2022-07-29T19:27:27.152Z,1.85
2022-07-29T19:29:56.655Z,1.90
2022-07-29T19:32:28.391Z,1.75
2022-07-29T19:35:13.677Z,1.98
2022-07-29T19:37:40.504Z,1.52
2022-07-29T19:40:07.358Z,1.88
2022-07-29T19:42:34.002Z,1.73
2022-07-29T19:45:00.738Z,1.95
2022-07-29T19:47:27.392Z,1.50
2022-07-29T19:49:54.030Z,1.92
2022-07-29T19:52:20.717Z,1.83
2022-07-29T19:54:47.445Z,1.73
2022-07-29T19:57:14.211Z,1.98
2022-07-29T19:59:41.136Z,1.80
2022-07-29T20:02:10.873Z,2.08
2022-07-29T20:04:37.798Z,1.63
2022-07-29T20:07:04.736Z,2.00
2022-07-29T20:09:31.294Z,1.70
2022-07-29T20:11:57.926Z,1.50
2022-07-29T20:14:24.536Z,1.70
2022-07-29T20:16:51.233Z,1.70
2022-07-29T20:19:17.860Z,2.45
2022-07-29T20:21:44.517Z,1.80
2022-07-29T20:24:11.253Z,1.60
2022-07-29T20:26:38.173Z,1.73
2022-07-29T20:29:05.395Z,2.30
2022-07-29T20:31:32.539Z,2.28
2022-07-29T20:34:00.112Z,2.35
2022-07-29T20:36:28.102Z,2.15
2022-07-29T20:38:55.239Z,1.83
2022-07-29T20:41:21.915Z,1.88
2022-07-29T20:43:49.872Z,2.40
2022-07-29T20:46:16.701Z,1.92
2022-07-29T20:48:44.134Z,2.00
2022-07-29T20:51:11.045Z,1.92
2022-07-29T20:53:38.568Z,2.08
2022-07-29T20:56:05.536Z,1.83
2022-07-29T20:58:36.678Z,2.13
2022-07-29T21:01:04.259Z,2.10
2022-07-29T21:03:31.210Z,1.80
2022-07-29T21:05:57.870Z,1.80
2022-07-29T21:08:27.732Z,1.80
2022-07-29T21:10:54.717Z,2.42
2022-07-29T21:13:23.051Z,1.83
2022-07-29T21:15:51.740Z,2.05
2022-07-29T21:18:30.473Z,2.15
2022-07-29T21:21:02.566Z,2.10
2022-07-29T21:23:30.070Z,1.92
2022-07-29T21:25:56.953Z,2.10
2022-07-29T21:28:26.567Z,1.92
2022-07-29T21:31:00.612Z,1.88
2022-07-29T21:33:28.443Z,1.98
2022-07-29T21:38:42.496Z,1.95
2022-07-29T21:41:10.859Z,2.20
2022-07-29T21:43:37.573Z,1.77
2022-07-29T21:46:09.381Z,1.60
2022-07-29T21:48:36.053Z,1.73
2022-07-29T21:51:02.875Z,1.70
2022-07-29T21:53:30.737Z,2.00
2022-07-29T21:55:57.681Z,1.40
2022-07-29T21:58:25.095Z,2.33
2022-07-29T22:00:52.497Z,2.00
2022-07-29T22:03:19.193Z,2.38
2022-07-29T22:05:45.980Z,2.00
2022-07-29T22:08:13.650Z,2.08
2022-07-29T22:10:40.216Z,2.15
2022-07-29T22:13:07.219Z,2.10
2022-07-29T22:15:33.849Z,1.65
2022-07-29T22:18:00.465Z,2.20
2022-07-29T22:20:27.178Z,1.75
2022-07-29T22:22:53.889Z,1.90
2022-07-29T22:25:20.756Z,1.92
2022-07-29T22:27:47.347Z,2.08
2022-07-29T22:30:14.442Z,2.28
2022-07-29T22:32:42.555Z,1.75
2022-07-29T22:35:09.346Z,1.80
2022-07-29T22:37:37.161Z,2.15
2022-07-29T22:40:04.392Z,1.92
2022-07-29T22:42:31.055Z,1.25
2022-07-29T22:44:58.619Z,1.60
2022-07-29T22:47:46.115Z,1.63
2022-07-29T22:50:12.057Z,2.08
2022-07-29T22:52:38.623Z,2.17
2022-07-29T22:55:05.793Z,2.00
2022-07-29T22:57:34.567Z,1.73
2022-07-29T23:00:02.349Z,2.20
2022-07-29T23:02:29.371Z,2.13
2022-07-29T23:04:56.006Z,2.00
2022-07-29T23:07:22.823Z,1.55
2022-07-29T23:09:49.383Z,1.80
2022-07-29T23:12:15.946Z,1.70
2022-07-29T23:14:42.577Z,2.00
2022-07-29T23:17:09.219Z,1.80
2022-07-29T23:19:35.882Z,2.08
2022-07-29T23:22:02.529Z,1.80
2022-07-29T23:24:29.092Z,1.73
2022-07-29T23:26:55.679Z,1.90
2022-07-29T23:29:22.417Z,2.08
2022-07-29T23:31:48.969Z,1.92
2022-07-29T23:34:15.663Z,1.80
2022-07-29T23:36:42.396Z,2.08
2022-07-29T23:39:15.258Z,1.60
2022-07-29T23:41:42.097Z,2.05
2022-07-29T23:44:08.883Z,2.03
2022-07-29T23:46:35.580Z,1.70
2022-07-29T23:49:02.599Z,2.40
2022-07-29T23:51:29.367Z,1.70
2022-07-29T23:53:56.428Z,1.80
2022-07-29T23:56:23.409Z,1.55
2022-07-29T23:58:50.137Z,1.95
